Time;durP1;ratioP1;P1;durP2;ratioP2;P2;SDS_P1;SDS_P2;PMS_P1;PMS_P2;Temp;Humidity;BMP_temperature;BMP_pressure;BME280_temperature;BME280_humidity;BME280_pressure;Samples;Min_cycle;Max_cycle;Signal;HPM_P1;HPM_P2
2022/01/23 00:00:16;;;;;;;14.70;4.65;;;;;;;;;;5005775;28;20136;-63
2022/01/23 00:02:42;;;;;;;13.65;4.70;;;;;;;;;;5005930;28;20756;-62
2022/01/23 00:05:08;;;;;;;12.20;4.97;;;;;;;;;;5006223;28;20034;-62
2022/01/23 00:07:35;;;;;;;13.63;5.05;;;;;;;;;;5006044;28;20038;-64
2022/01/23 00:10:01;;;;;;;13.85;4.45;;;;;;;;;;5038440;28;20046;-62
2022/01/23 00:12:31;;;;;;;14.82;4.45;;;;;;;;;;4990077;28;20042;-62
2022/01/23 00:17:42;;;;;;;13.88;4.93;;;;;;;;;;5006865;28;20519;-62
2022/01/23 00:20:10;;;;;;;13.95;3.80;;;;;;;;;;5005662;28;20049;-62
2022/01/23 00:30:35;;;;;;;12.80;3.40;;;;;;;;;;5042652;28;20049;-62
2022/01/23 00:33:03;;;;;;;20.70;3.78;;;;;;;;;;5010704;28;20092;-63
2022/01/23 00:35:33;;;;;;;14.25;3.55;;;;;;;;;;4993001;28;20053;-63
2022/01/23 00:37:59;;;;;;;14.18;3.10;;;;;;;;;;5006992;28;20527;-63
2022/01/23 00:40:26;;;;;;;12.95;3.17;;;;;;;;;;5010888;28;20136;-61
2022/01/23 00:42:54;;;;;;;11.18;2.78;;;;;;;;;;5009244;28;20045;-61
2022/01/23 00:45:32;;;;;;;13.40;2.80;;;;;;;;;;5042795;28;20038;-61
2022/01/23 00:48:03;;;;;;;10.55;3.00;;;;;;;;;;5009566;28;20041;-61
2022/01/23 00:50:35;;;;;;;10.45;2.63;;;;;;;;;;5009414;28;20080;-61
2022/01/23 00:53:01;;;;;;;12.95;2.60;;;;;;;;;;5011067;28;20038;-63
2022/01/23 00:55:27;;;;;;;10.73;2.72;;;;;;;;;;5008764;28;20045;-63
2022/01/23 00:57:53;;;;;;;12.93;2.40;;;;;;;;;;5008968;28;20033;-61
2022/01/23 01:00:20;;;;;;;9.90;2.60;;;;;;;;;;4992921;28;20052;-62
2022/01/23 01:02:46;;;;;;;11.52;2.38;;;;;;;;;;5010954;28;20399;-62
2022/01/23 01:05:13;;;;;;;7.47;2.47;;;;;;;;;;5009598;28;20051;-62
2022/01/23 01:07:39;;;;;;;12.77;3.00;;;;;;;;;;5009467;28;20176;-62
2022/01/23 01:10:11;;;;;;;14.25;2.63;;;;;;;;;;5008930;28;20038;-62
2022/01/23 01:12:41;;;;;;;10.35;2.25;;;;;;;;;;5009033;28;20048;-62
2022/01/23 01:34:04;;;;;;;8.68;2.30;;;;;;;;;;5008540;28;20133;-63
2022/01/23 01:36:45;;;;;;;7.90;2.25;;;;;;;;;;5041654;28;20049;-61
2022/01/23 01:39:12;;;;;;;8.88;2.85;;;;;;;;;;5024612;28;20133;-64
2022/01/23 01:41:39;;;;;;;8.10;2.83;;;;;;;;;;5041420;28;20038;-62
2022/01/23 01:44:12;;;;;;;9.48;2.78;;;;;;;;;;5009919;28;20499;-62
2022/01/23 01:46:39;;;;;;;7.47;2.38;;;;;;;;;;5007776;28;20531;-63
2022/01/23 01:49:05;;;;;;;5.97;2.08;;;;;;;;;;5041005;28;20048;-63
2022/01/23 01:51:33;;;;;;;7.85;1.77;;;;;;;;;;5009344;28;21225;-63
2022/01/23 01:54:20;;;;;;;6.60;1.92;;;;;;;;;;5009319;28;20053;-63
2022/01/23 01:56:52;;;;;;;9.05;2.20;;;;;;;;;;5025078;28;20085;-62
2022/01/23 01:59:45;;;;;;;7.75;2.20;;;;;;;;;;5007157;28;20122;-62
2022/01/23 02:10:25;;;;;;;7.65;1.50;;;;;;;;;;5040779;28;20053;-63
2022/01/23 02:16:04;;;;;;;10.05;2.17;;;;;;;;;;5039155;28;20496;-64
2022/01/23 02:24:08;;;;;;;11.13;2.10;;;;;;;;;;5041207;28;20503;-63
2022/01/23 02:56:53;;;;;;;9.35;3.30;;;;;;;;;;5008191;28;20045;-62
2022/01/23 02:59:24;;;;;;;8.45;2.72;;;;;;;;;;5006315;28;20054;-62
2022/01/23 03:02:10;;;;;;;8.05;2.72;;;;;;;;;;5006224;28;20034;-62
2022/01/23 03:04:47;;;;;;;10.25;2.95;;;;;;;;;;5006974;28;20061;-61
2022/01/23 03:15:02;;;;;;;5.90;3.17;;;;;;;;;;5039683;28;20050;-62
2022/01/23 03:28:36;;;;;;;8.43;3.45;;;;;;;;;;5005569;28;20046;-63
2022/01/23 03:31:20;;;;;;;9.10;4.03;;;;;;;;;;5006212;28;20423;-64
2022/01/23 03:33:47;;;;;;;10.63;3.70;;;;;;;;;;5038446;28;20034;-63
2022/01/23 03:36:13;;;;;;;12.00;4.30;;;;;;;;;;5022124;28;20030;-63
2022/01/23 03:38:39;;;;;;;10.05;3.95;;;;;;;;;;5006314;28;20145;-63
2022/01/23 03:41:05;;;;;;;7.55;4.10;;;;;;;;;;5006753;28;20557;-63
2022/01/23 03:43:35;;;;;;;9.95;4.57;;;;;;;;;;5022702;28;20106;-63
2022/01/23 03:51:12;;;;;;;8.02;4.43;;;;;;;;;;5039283;28;20498;-64
2022/01/23 03:53:39;;;;;;;11.35;4.88;;;;;;;;;;5007296;28;20133;-64
2022/01/23 03:56:05;;;;;;;9.90;4.53;;;;;;;;;;5007529;28;20034;-64
2022/01/23 03:58:32;;;;;;;9.88;4.93;;;;;;;;;;5022802;28;20121;-64
2022/01/23 04:00:58;;;;;;;9.70;4.40;;;;;;;;;;4991247;28;21343;-63
2022/01/23 04:03:25;;;;;;;10.38;5.20;;;;;;;;;;5009787;28;20048;-62
2022/01/23 04:05:51;;;;;;;13.45;5.30;;;;;;;;;;5040785;28;20650;-64
2022/01/23 04:08:18;;;;;;;13.82;4.85;;;;;;;;;;5009453;28;20049;-64
2022/01/23 04:10:44;;;;;;;12.13;5.57;;;;;;;;;;4993629;28;20049;-62
2022/01/23 04:13:22;;;;;;;10.30;5.57;;;;;;;;;;5011010;28;20506;-63
2022/01/23 04:34:48;;;;;;;13.60;5.95;;;;;;;;;;4990874;28;20582;-62
2022/01/23 04:45:33;;;;;;;12.63;5.38;;;;;;;;;;5042599;28;20049;-62
2022/01/23 05:01:52;;;;;;;12.68;5.75;;;;;;;;;;5040997;28;20057;-61
2022/01/23 05:04:28;;;;;;;12.73;5.60;;;;;;;;;;4995782;28;20577;-62
2022/01/23 05:07:00;;;;;;;14.48;5.22;;;;;;;;;;5042005;28;20045;-62
2022/01/23 05:09:26;;;;;;;13.90;5.30;;;;;;;;;;5041768;28;20045;-61
2022/01/23 05:11:56;;;;;;;14.55;5.57;;;;;;;;;;5009138;28;20045;-61
2022/01/23 05:14:29;;;;;;;10.82;5.20;;;;;;;;;;5010350;28;20123;-61
2022/01/23 05:16:55;;;;;;;14.35;5.43;;;;;;;;;;5011033;28;20053;-61
2022/01/23 05:19:22;;;;;;;13.93;5.80;;;;;;;;;;4992058;28;20128;-61
2022/01/23 05:24:16;;;;;;;11.65;6.05;;;;;;;;;;5010037;28;20045;-61
2022/01/23 05:26:45;;;;;;;12.50;5.63;;;;;;;;;;5023887;28;20095;-62
2022/01/23 05:29:12;;;;;;;10.10;5.53;;;;;;;;;;5011116;28;20127;-62
2022/01/23 05:31:38;;;;;;;14.57;6.90;;;;;;;;;;5011048;28;20535;-61
2022/01/23 05:34:05;;;;;;;12.23;6.15;;;;;;;;;;5042857;28;20436;-62
2022/01/23 05:36:31;;;;;;;15.50;6.00;;;;;;;;;;5009596;28;20034;-62
2022/01/23 05:38:57;;;;;;;12.50;5.32;;;;;;;;;;5011233;28;20133;-62
2022/01/23 05:41:23;;;;;;;12.70;6.13;;;;;;;;;;5009412;28;20049;-61
2022/01/23 05:43:49;;;;;;;15.77;6.05;;;;;;;;;;4993657;28;20087;-61
2022/01/23 05:46:16;;;;;;;9.82;5.72;;;;;;;;;;5011108;28;20041;-61
2022/01/23 05:48:42;;;;;;;6.57;5.22;;;;;;;;;;5010494;28;20073;-62
2022/01/23 05:51:12;;;;;;;11.32;5.55;;;;;;;;;;4992788;28;20046;-63
2022/01/23 05:53:41;;;;;;;13.40;6.05;;;;;;;;;;5010573;28;20096;-62
2022/01/23 05:56:07;;;;;;;9.73;5.72;;;;;;;;;;4992778;28;20033;-63
2022/01/23 05:58:33;;;;;;;12.05;5.50;;;;;;;;;;5009549;28;20580;-62
2022/01/23 06:01:00;;;;;;;12.13;5.72;;;;;;;;;;5008266;28;20045;-63
2022/01/23 06:03:26;;;;;;;14.68;6.65;;;;;;;;;;5042078;28;20062;-63
2022/01/23 06:05:52;;;;;;;12.45;5.57;;;;;;;;;;5008406;28;20054;-63
2022/01/23 06:08:20;;;;;;;12.43;6.32;;;;;;;;;;5008127;28;20158;-62
2022/01/23 06:10:54;;;;;;;11.82;5.72;;;;;;;;;;5040880;28;20112;-62
2022/01/23 06:13:20;;;;;;;;;;;;;;;;;;5040171;28;20048;-62
2022/01/23 06:15:46;;;;;;;14.40;6.70;;;;;;;;;;4992217;28;19917;-62
2022/01/23 06:18:12;;;;;;;16.15;6.38;;;;;;;;;;5007825;28;20092;-62
2022/01/23 06:20:38;;;;;;;13.60;6.72;;;;;;;;;;5006819;28;20053;-62
2022/01/23 06:23:04;;;;;;;11.45;6.72;;;;;;;;;;5007373;28;20148;-63
2022/01/23 06:25:36;;;;;;;13.75;6.38;;;;;;;;;;5041117;28;20045;-62
2022/01/23 06:28:06;;;;;;;12.63;6.78;;;;;;;;;;5023528;28;20042;-63
2022/01/23 06:30:33;;;;;;;14.93;7.03;;;;;;;;;;5005584;28;20038;-63
2022/01/23 06:32:59;;;;;;;15.25;7.68;;;;;;;;;;5008150;28;20038;-63
2022/01/23 06:35:25;;;;;;;14.70;7.70;;;;;;;;;;5041418;28;20096;-62
2022/01/23 06:37:51;;;;;;;12.43;7.47;;;;;;;;;;5041312;28;20049;-62
2022/01/23 06:40:17;;;;;;;13.80;7.75;;;;;;;;;;4991458;28;20042;-62
2022/01/23 06:42:43;;;;;;;12.15;7.75;;;;;;;;;;5007965;28;20060;-63
2022/01/23 06:45:10;;;;;;;15.13;7.95;;;;;;;;;;5040954;28;20496;-63
2022/01/23 06:47:36;;;;;;;18.83;8.30;;;;;;;;;;5007917;28;20049;-63
2022/01/23 06:50:03;;;;;;;12.77;8.32;;;;;;;;;;5040517;28;20049;-63
2022/01/23 06:52:29;;;;;;;15.95;8.07;;;;;;;;;;5040507;28;20391;-62
2022/01/23 06:54:55;;;;;;;17.50;8.82;;;;;;;;;;5008366;28;20034;-63
2022/01/23 06:57:21;;;;;;;16.40;8.40;;;;;;;;;;5007022;28;20042;-63
2022/01/23 06:59:47;;;;;;;18.90;9.40;;;;;;;;;;5008786;28;20048;-63
2022/01/23 07:02:13;;;;;;;17.67;9.13;;;;;;;;;;5007844;28;20099;-63
2022/01/23 07:04:39;;;;;;;16.02;9.82;;;;;;;;;;5040554;28;20050;-63
2022/01/23 07:07:06;;;;;;;17.63;10.25;;;;;;;;;;5007873;28;20065;-61
2022/01/23 07:09:32;;;;;;;18.60;9.73;;;;;;;;;;5041621;28;20116;-62
2022/01/23 07:11:58;;;;;;;16.13;8.48;;;;;;;;;;5007771;28;20096;-62
2022/01/23 07:14:24;;;;;;;17.55;10.10;;;;;;;;;;4990772;28;20381;-62
2022/01/23 07:16:50;;;;;;;16.27;9.18;;;;;;;;;;5008353;28;20577;-62
2022/01/23 07:19:17;;;;;;;16.60;9.52;;;;;;;;;;5006679;28;20104;-63
2022/01/23 07:21:43;;;;;;;19.25;9.30;;;;;;;;;;5022709;28;20042;-62
2022/01/23 07:24:10;;;;;;;17.25;9.52;;;;;;;;;;5006559;28;20034;-63
2022/01/23 07:26:36;;;;;;;19.50;9.88;;;;;;;;;;5040073;28;20092;-62
2022/01/23 07:29:05;;;;;;;15.23;9.57;;;;;;;;;;4990261;28;20145;-64
2022/01/23 07:34:02;;;;;;;17.65;9.50;;;;;;;;;;5039748;28;20686;-64
2022/01/23 07:36:28;;;;;;;15.88;9.45;;;;;;;;;;5006890;28;20384;-63
2022/01/23 07:38:54;;;;;;;16.70;9.88;;;;;;;;;;5007331;28;20070;-63
2022/01/23 07:41:20;;;;;;;14.25;9.07;;;;;;;;;;5007180;28;20165;-63
2022/01/23 07:43:46;;;;;;;15.75;8.80;;;;;;;;;;5040269;28;20041;-63
2022/01/23 07:46:12;;;;;;;16.75;10.13;;;;;;;;;;5006374;28;20121;-63
2022/01/23 07:48:38;;;;;;;13.68;9.07;;;;;;;;;;5006795;28;20034;-62
2022/01/23 07:51:04;;;;;;;14.90;8.73;;;;;;;;;;5040401;28;20042;-61
2022/01/23 07:53:30;;;;;;;17.98;9.18;;;;;;;;;;5008886;28;20041;-62
2022/01/23 07:55:57;;;;;;;13.95;8.55;;;;;;;;;;5006949;28;20069;-62
2022/01/23 07:58:23;;;;;;;15.20;8.23;;;;;;;;;;4991167;28;20409;-61
2022/01/23 08:00:49;;;;;;;12.80;8.20;;;;;;;;;;5007525;28;20376;-61
2022/01/23 08:03:15;;;;;;;11.55;7.50;;;;;;;;;;5008543;28;20087;-61
2022/01/23 08:05:43;;;;;;;13.55;7.50;;;;;;;;;;5007511;28;20077;-61
2022/01/23 08:08:09;;;;;;;10.23;7.35;;;;;;;;;;4990729;28;20048;-63
2022/01/23 08:10:35;;;;;;;11.90;7.57;;;;;;;;;;5006922;28;20042;-62
2022/01/23 08:13:03;;;;;;;13.57;7.30;;;;;;;;;;5038812;28;20065;-63
2022/01/23 08:15:30;;;;;;;13.23;8.10;;;;;;;;;;4991312;28;20529;-62
2022/01/23 08:17:59;;;;;;;14.60;7.07;;;;;;;;;;5006518;28;20045;-62
2022/01/23 08:20:25;;;;;;;10.38;6.75;;;;;;;;;;5006782;28;20184;-62
2022/01/23 08:22:51;;;;;;;10.98;6.55;;;;;;;;;;5006984;28;20045;-63
2022/01/23 08:25:18;;;;;;;13.13;5.95;;;;;;;;;;5008446;28;20034;-63
2022/01/23 08:27:44;;;;;;;10.18;6.30;;;;;;;;;;5022943;28;20168;-62
2022/01/23 08:30:13;;;;;;;9.90;5.85;;;;;;;;;;5039782;28;20147;-62
2022/01/23 08:32:39;;;;;;;8.57;5.50;;;;;;;;;;5006834;28;20050;-63
2022/01/23 08:35:06;;;;;;;9.05;5.20;;;;;;;;;;5022970;28;20053;-63
2022/01/23 08:37:32;;;;;;;11.65;6.10;;;;;;;;;;4990386;28;20049;-62
2022/01/23 08:39:58;;;;;;;11.60;5.13;;;;;;;;;;5022929;28;20069;-62
2022/01/23 08:42:24;;;;;;;10.02;4.95;;;;;;;;;;5006068;28;20050;-62
2022/01/23 08:44:52;;;;;;;7.13;5.45;;;;;;;;;;5007097;28;20069;-63
2022/01/23 08:47:18;;;;;;;8.82;5.38;;;;;;;;;;5041603;28;20045;-63
2022/01/23 08:49:47;;;;;;;6.53;4.78;;;;;;;;;;4994075;28;20048;-62
2022/01/23 08:52:18;;;;;;;9.43;5.85;;;;;;;;;;5009923;28;20503;-63
2022/01/23 08:54:46;;;;;;;7.68;4.95;;;;;;;;;;5042456;28;20435;-62
2022/01/23 08:57:12;;;;;;;6.65;4.53;;;;;;;;;;5011577;28;20147;-63
2022/01/23 08:59:38;;;;;;;6.22;3.70;;;;;;;;;;5005819;28;20046;-62
2022/01/23 09:02:05;;;;;;;6.47;3.72;;;;;;;;;;5026517;28;20038;-63
2022/01/23 09:04:32;;;;;;;7.50;3.85;;;;;;;;;;5011511;28;20844;-61
2022/01/23 09:06:58;;;;;;;5.65;4.22;;;;;;;;;;5010224;28;20118;-61
2022/01/23 09:09:29;;;;;;;5.65;4.05;;;;;;;;;;5011135;28;20053;-61
2022/01/23 09:14:30;;;;;;;5.50;3.55;;;;;;;;;;5040657;28;20492;-60
2022/01/23 09:16:57;;;;;;;5.80;3.30;;;;;;;;;;5011428;28;20050;-61
2022/01/23 09:19:24;;;;;;;6.03;3.75;;;;;;;;;;5010336;28;20069;-62
2022/01/23 09:21:51;;;;;;;5.70;3.50;;;;;;;;;;5010243;28;20042;-64
2022/01/23 09:24:17;;;;;;;6.20;3.45;;;;;;;;;;5009409;28;20046;-62
2022/01/23 09:26:46;;;;;;;4.57;3.55;;;;;;;;;;5010737;28;20041;-60
2022/01/23 09:29:15;;;;;;;4.70;2.95;;;;;;;;;;5009411;28;20056;-61
2022/01/23 09:31:48;;;;;;;4.47;3.17;;;;;;;;;;4993168;28;20054;-63
2022/01/23 09:34:25;;;;;;;7.32;3.20;;;;;;;;;;5009580;28;20318;-62
2022/01/23 09:36:51;;;;;;;5.40;3.33;;;;;;;;;;5010756;28;20042;-62
2022/01/23 09:39:20;;;;;;;4.68;3.05;;;;;;;;;;4992598;28;20042;-61
2022/01/23 09:41:48;;;;;;;2.95;2.60;;;;;;;;;;5010061;28;20045;-62
2022/01/23 09:44:16;;;;;;;5.32;2.90;;;;;;;;;;5010503;28;20041;-61
2022/01/23 09:46:46;;;;;;;4.30;2.33;;;;;;;;;;5009988;28;20034;-62
2022/01/23 09:49:14;;;;;;;4.55;2.90;;;;;;;;;;5008638;28;20112;-62
2022/01/23 09:51:42;;;;;;;3.50;2.17;;;;;;;;;;5010943;28;20559;-63
2022/01/23 09:54:10;;;;;;;3.25;2.42;;;;;;;;;;4993818;28;20109;-63
2022/01/23 09:56:36;;;;;;;3.00;1.85;;;;;;;;;;5027665;28;20068;-63
2022/01/23 09:59:02;;;;;;;4.00;1.92;;;;;;;;;;5040775;28;20081;-64
2022/01/23 10:01:28;;;;;;;2.53;2.20;;;;;;;;;;5043761;28;20045;-62
2022/01/23 10:03:55;;;;;;;3.53;1.20;;;;;;;;;;5041535;28;20366;-64
2022/01/23 10:06:21;;;;;;;2.03;1.67;;;;;;;;;;5025249;28;20065;-61
2022/01/23 10:08:49;;;;;;;2.67;0.80;;;;;;;;;;5041553;28;20445;-63
2022/01/23 10:11:15;;;;;;;2.58;1.10;;;;;;;;;;5008186;28;20080;-61
2022/01/23 10:13:43;;;;;;;3.17;1.20;;;;;;;;;;5008680;28;20053;-62
2022/01/23 10:16:09;;;;;;;2.88;1.23;;;;;;;;;;5006346;28;20042;-62
2022/01/23 10:18:36;;;;;;;3.20;0.73;;;;;;;;;;5007779;28;20727;-63
2022/01/23 10:21:02;;;;;;;2.13;0.82;;;;;;;;;;5006643;28;20045;-61
2022/01/23 10:23:28;;;;;;;2.40;1.10;;;;;;;;;;5040120;28;20057;-62
2022/01/23 10:25:56;;;;;;;2.95;1.10;;;;;;;;;;5005978;28;20184;-63
2022/01/23 10:28:28;;;;;;;3.08;1.30;;;;;;;;;;5041096;28;20053;-61
2022/01/23 10:30:58;;;;;;;1.67;1.20;;;;;;;;;;5008553;28;20046;-61
2022/01/23 10:33:24;;;;;;;1.17;0.50;;;;;;;;;;5008411;28;20259;-61
2022/01/23 10:35:53;;;;;;;1.52;0.60;;;;;;;;;;5044016;28;20048;-61
2022/01/23 10:38:20;;;;;;;1.48;0.75;;;;;;;;;;5025333;28;20151;-62
2022/01/23 10:40:51;;;;;;;2.05;0.50;;;;;;;;;;4992335;28;20100;-63
2022/01/23 10:48:49;;;;;;;2.10;0.30;;;;;;;;;;5038544;28;20503;-61
2022/01/23 10:51:36;;;;;;;1.50;0.45;;;;;;;;;;5008363;28;20048;-61
2022/01/23 10:54:09;;;;;;;1.25;0.30;;;;;;;;;;5023818;28;20476;-62
2022/01/23 10:56:40;;;;;;;0.70;0.20;;;;;;;;;;5006893;28;20119;-61
2022/01/23 10:59:09;;;;;;;1.25;0.00;;;;;;;;;;4990411;28;20045;-62
2022/01/23 11:01:35;;;;;;;0.60;0.00;;;;;;;;;;5039636;28;20519;-60
2022/01/23 11:04:04;;;;;;;0.10;0.00;;;;;;;;;;5039263;28;20109;-62
2022/01/23 11:06:30;;;;;;;0.63;0.10;;;;;;;;;;5006248;28;20358;-64
2022/01/23 11:09:12;;;;;;;1.95;0.10;;;;;;;;;;5006893;28;20131;-63
2022/01/23 11:11:47;;;;;;;0.55;0.10;;;;;;;;;;5040919;28;20458;-62
2022/01/23 11:17:22;;;;;;;0.60;0.20;;;;;;;;;;5007278;28;20095;-64
2022/01/23 11:19:49;;;;;;;0.90;0.20;;;;;;;;;;5021511;28;20068;-63
2022/01/23 11:22:24;;;;;;;0.65;0.10;;;;;;;;;;5005774;28;20070;-63
2022/01/23 11:24:51;;;;;;;1.58;0.20;;;;;;;;;;5005507;28;20050;-63
2022/01/23 11:27:21;;;;;;;1.23;0.10;;;;;;;;;;5038631;28;20045;-63
2022/01/23 11:29:56;;;;;;;1.73;0.20;;;;;;;;;;5007841;28;20050;-64
2022/01/23 11:32:24;;;;;;;0.60;0.20;;;;;;;;;;4989506;28;20432;-63
2022/01/23 11:34:51;;;;;;;0.40;0.20;;;;;;;;;;5008164;28;20033;-63
2022/01/23 11:37:18;;;;;;;0.30;0.10;;;;;;;;;;5006250;28;20041;-63
2022/01/23 11:39:50;;;;;;;0.32;0.10;;;;;;;;;;5039918;28;20487;-63
2022/01/23 11:50:46;;;;;;;0.47;0.20;;;;;;;;;;5006976;28;20424;-62
2022/01/23 11:56:25;;;;;;;0.63;0.10;;;;;;;;;;5007101;28;20120;-60
2022/01/23 11:59:17;;;;;;;0.60;0.20;;;;;;;;;;5007103;28;20277;-61
2022/01/23 12:01:45;;;;;;;0.43;0.20;;;;;;;;;;5041201;28;20046;-61
2022/01/23 12:04:21;;;;;;;0.38;0.20;;;;;;;;;;5006735;28;20042;-63
2022/01/23 12:07:06;;;;;;;2.35;0.20;;;;;;;;;;5040449;28;20411;-63
2022/01/23 12:09:32;;;;;;;0.60;0.20;;;;;;;;;;5023298;28;20209;-63
2022/01/23 12:18:12;;;;;;;1.05;0.22;;;;;;;;;;5036313;28;20057;-63
2022/01/23 12:20:38;;;;;;;1.20;0.10;;;;;;;;;;5039264;28;20053;-63
2022/01/23 12:23:05;;;;;;;1.55;0.20;;;;;;;;;;4976707;28;20038;-62
2022/01/23 12:25:39;;;;;;;1.40;0.30;;;;;;;;;;4978135;28;20056;-63
2022/01/23 12:28:27;;;;;;;1.83;0.20;;;;;;;;;;5026909;28;20131;-63
2022/01/23 12:31:12;;;;;;;1.42;0.20;;;;;;;;;;4992833;28;20077;-62
2022/01/23 12:33:42;;;;;;;0.75;0.20;;;;;;;;;;5010729;28;20565;-63
2022/01/23 12:36:29;;;;;;;1.17;0.30;;;;;;;;;;5010599;28;20133;-62
2022/01/23 12:39:07;;;;;;;2.47;0.20;;;;;;;;;;5028331;28;20058;-63
2022/01/23 12:41:34;;;;;;;2.42;0.20;;;;;;;;;;5044521;28;20058;-61
2022/01/23 12:44:00;;;;;;;1.45;0.20;;;;;;;;;;5011780;28;20049;-62
2022/01/23 12:46:47;;;;;;;1.55;0.50;;;;;;;;;;5011960;28;20561;-62
2022/01/23 12:49:19;;;;;;;0.82;0.30;;;;;;;;;;4996680;28;20472;-62
2022/01/23 12:51:45;;;;;;;1.00;0.20;;;;;;;;;;4993588;28;20463;-62
2022/01/23 12:54:14;;;;;;;1.08;0.20;;;;;;;;;;5009674;28;20176;-63
2022/01/23 12:56:43;;;;;;;0.77;0.20;;;;;;;;;;5011487;28;20121;-63
2022/01/23 12:59:12;;;;;;;1.23;0.30;;;;;;;;;;5026248;28;20041;-63
2022/01/23 13:01:41;;;;;;;0.93;0.38;;;;;;;;;;5010627;28;20038;-63
2022/01/23 13:04:08;;;;;;;1.73;0.63;;;;;;;;;;4993661;28;20076;-64
2022/01/23 13:06:35;;;;;;;1.50;0.50;;;;;;;;;;4993293;28;20049;-63
2022/01/23 13:09:22;;;;;;;1.77;0.45;;;;;;;;;;5012064;28;20117;-63
2022/01/23 13:12:05;;;;;;;3.28;0.60;;;;;;;;;;5042478;28;20476;-63
2022/01/23 13:14:40;;;;;;;2.75;0.50;;;;;;;;;;5025345;28;20048;-62
2022/01/23 13:17:29;;;;;;;2.75;0.70;;;;;;;;;;5009041;28;20034;-63
2022/01/23 13:30:56;;;;;;;1.60;0.50;;;;;;;;;;5009459;28;20415;-63
2022/01/23 13:33:24;;;;;;;2.88;0.90;;;;;;;;;;5040671;28;20112;-63
2022/01/23 13:35:52;;;;;;;3.08;1.13;;;;;;;;;;5041263;28;20068;-63
2022/01/23 13:38:20;;;;;;;2.45;0.82;;;;;;;;;;5009183;28;20038;-63
2022/01/23 13:40:53;;;;;;;1.08;0.45;;;;;;;;;;5010288;28;20120;-63
2022/01/23 13:49:57;;;;;;;0.73;0.40;;;;;;;;;;5010052;28;20045;-62
2022/01/23 13:57:35;;;;;;;1.65;0.70;;;;;;;;;;5008223;28;20112;-62
2022/01/23 13:59:55;;;;;;;1.80;0.47;;;;;;;;;;5006988;28;20507;-63
2022/01/23 14:02:24;;;;;;;1.50;0.65;;;;;;;;;;5008986;28;20046;-62
2022/01/23 14:04:56;;;;;;;1.38;0.60;;;;;;;;;;5042470;28;20446;-61
2022/01/23 14:07:23;;;;;;;1.38;0.80;;;;;;;;;;5009402;28;20034;-61
2022/01/23 14:09:50;;;;;;;1.80;0.70;;;;;;;;;;5009522;28;20049;-62
2022/01/23 14:12:17;;;;;;;2.33;0.70;;;;;;;;;;5007140;28;20054;-63
2022/01/23 14:14:57;;;;;;;3.78;0.70;;;;;;;;;;5008804;28;20541;-62
2022/01/23 14:17:25;;;;;;;2.35;0.68;;;;;;;;;;4991488;28;20045;-62
2022/01/23 14:19:57;;;;;;;2.67;0.68;;;;;;;;;;5008833;28;20133;-61
2022/01/23 14:22:43;;;;;;;1.83;0.90;;;;;;;;;;5008499;28;20603;-61
2022/01/23 14:25:10;;;;;;;2.25;0.90;;;;;;;;;;5010285;28;20041;-61
2022/01/23 14:27:37;;;;;;;2.17;0.90;;;;;;;;;;4993469;28;20046;-60
2022/01/23 14:30:12;;;;;;;3.30;1.02;;;;;;;;;;5010040;28;20057;-61
2022/01/23 14:32:43;;;;;;;2.75;0.80;;;;;;;;;;5011539;28;20475;-62
2022/01/23 14:35:15;;;;;;;1.85;0.90;;;;;;;;;;5010320;28;20117;-61
2022/01/23 14:37:42;;;;;;;2.65;0.75;;;;;;;;;;5010074;28;20130;-61
2022/01/23 14:40:10;;;;;;;2.38;0.85;;;;;;;;;;5011145;28;20054;-61
2022/01/23 14:42:36;;;;;;;2.97;0.70;;;;;;;;;;4993516;28;20083;-61
2022/01/23 14:45:07;;;;;;;1.20;0.80;;;;;;;;;;4992477;28;20842;-62
2022/01/23 14:47:40;;;;;;;2.10;1.10;;;;;;;;;;5009466;28;20177;-63
2022/01/23 14:50:10;;;;;;;2.63;1.10;;;;;;;;;;5009009;28;20041;-63
2022/01/23 14:52:36;;;;;;;1.40;1.02;;;;;;;;;;5011004;28;20418;-63
2022/01/23 14:55:03;;;;;;;4.22;1.20;;;;;;;;;;4993470;28;20056;-62
2022/01/23 14:57:32;;;;;;;2.35;1.50;;;;;;;;;;5009645;28;20162;-62
2022/01/23 14:59:59;;;;;;;2.75;1.50;;;;;;;;;;5009894;28;20377;-63
2022/01/23 15:02:26;;;;;;;4.20;1.70;;;;;;;;;;5009555;28;20057;-63
2022/01/23 15:04:52;;;;;;;2.97;2.08;;;;;;;;;;5009881;28;20042;-63
2022/01/23 15:07:18;;;;;;;3.10;1.80;;;;;;;;;;5010764;28;20045;-62
2022/01/23 15:09:49;;;;;;;2.88;1.55;;;;;;;;;;5010716;28;20575;-62
2022/01/23 15:12:15;;;;;;;2.95;1.13;;;;;;;;;;5009633;28;20041;-62
2022/01/23 15:14:42;;;;;;;3.10;2.03;;;;;;;;;;5009454;28;20518;-63
2022/01/23 15:17:08;;;;;;;2.85;1.10;;;;;;;;;;5007163;28;20048;-63
2022/01/23 15:19:35;;;;;;;2.80;1.73;;;;;;;;;;5041165;28;20143;-63
2022/01/23 15:22:01;;;;;;;6.30;5.38;;;;;;;;;;5040079;28;20064;-63
2022/01/23 15:24:28;;;;;;;4.15;3.10;;;;;;;;;;4992340;28;20066;-63
2022/01/23 15:26:54;;;;;;;2.67;2.17;;;;;;;;;;5007690;28;20516;-63
2022/01/23 15:29:20;;;;;;;10.55;8.57;;;;;;;;;;5010386;28;20087;-61
2022/01/23 15:31:47;;;;;;;5.57;5.00;;;;;;;;;;4991522;28;20052;-61
2022/01/23 15:34:15;;;;;;;6.82;6.13;;;;;;;;;;5009680;28;20060;-62
2022/01/23 15:36:42;;;;;;;6.65;5.95;;;;;;;;;;5007056;28;20446;-62
2022/01/23 15:39:08;;;;;;;3.75;3.33;;;;;;;;;;5008839;28;20204;-61
2022/01/23 15:41:34;;;;;;;3.78;2.00;;;;;;;;;;5038835;28;20113;-61
2022/01/23 15:44:00;;;;;;;5.45;2.75;;;;;;;;;;4996054;28;20065;-61
2022/01/23 15:46:27;;;;;;;2.85;2.47;;;;;;;;;;5008121;28;20123;-61
2022/01/23 15:48:53;;;;;;;5.18;2.25;;;;;;;;;;5009460;28;20123;-62
2022/01/23 15:51:19;;;;;;;2.70;2.40;;;;;;;;;;5007145;28;20133;-62
2022/01/23 15:53:45;;;;;;;4.05;2.70;;;;;;;;;;5008302;28;20065;-63
2022/01/23 15:56:11;;;;;;;5.95;3.00;;;;;;;;;;5006120;28;20038;-62
2022/01/23 15:58:37;;;;;;;3.78;3.03;;;;;;;;;;5005756;28;20121;-62
2022/01/23 16:01:03;;;;;;;6.03;3.80;;;;;;;;;;5023094;28;20101;-63
2022/01/23 16:03:30;;;;;;;4.97;3.85;;;;;;;;;;5021174;28;20121;-62
2022/01/23 16:05:56;;;;;;;4.65;3.22;;;;;;;;;;5004803;28;20045;-63
2022/01/23 16:08:23;;;;;;;6.10;3.03;;;;;;;;;;5022005;28;20795;-63
2022/01/23 16:10:49;;;;;;;5.90;3.47;;;;;;;;;;4989035;28;20523;-63
2022/01/23 16:13:15;;;;;;;6.60;3.67;;;;;;;;;;5005311;28;20038;-63
2022/01/23 16:15:43;;;;;;;5.78;3.95;;;;;;;;;;4989018;28;20049;-64
2022/01/23 16:18:10;;;;;;;4.68;4.15;;;;;;;;;;5019800;28;20573;-63
2022/01/23 16:20:37;;;;;;;7.28;4.43;;;;;;;;;;5004622;28;20520;-63
2022/01/23 16:23:04;;;;;;;5.25;3.42;;;;;;;;;;5007075;28;20038;-63
2022/01/23 16:25:30;;;;;;;5.07;2.95;;;;;;;;;;5008550;28;20245;-63
2022/01/23 16:27:57;;;;;;;6.38;2.85;;;;;;;;;;5006447;28;20434;-63
2022/01/23 16:30:24;;;;;;;4.60;3.53;;;;;;;;;;5038831;28;20128;-63
2022/01/23 16:32:50;;;;;;;5.72;3.08;;;;;;;;;;4986546;28;20062;-63
2022/01/23 16:35:19;;;;;;;5.90;2.70;;;;;;;;;;4989596;28;20076;-63
2022/01/23 16:37:46;;;;;;;4.18;2.00;;;;;;;;;;5006994;28;20065;-63
2022/01/23 16:40:13;;;;;;;6.85;2.65;;;;;;;;;;4988125;28;20065;-63
2022/01/23 16:42:39;;;;;;;7.45;2.58;;;;;;;;;;5021959;28;20038;-63
2022/01/23 16:45:05;;;;;;;9.00;3.20;;;;;;;;;;5004911;28;20120;-63
2022/01/23 16:47:32;;;;;;;8.38;4.45;;;;;;;;;;5005150;28;20850;-63
2022/01/23 16:49:58;;;;;;;9.73;5.95;;;;;;;;;;5005848;28;20289;-62
2022/01/23 16:52:24;;;;;;;7.93;6.20;;;;;;;;;;5004678;28;20056;-63
2022/01/23 16:54:50;;;;;;;11.70;6.30;;;;;;;;;;5037704;28;20045;-63
2022/01/23 16:57:18;;;;;;;9.25;5.35;;;;;;;;;;5037475;28;20157;-63
2022/01/23 16:59:44;;;;;;;9.55;4.72;;;;;;;;;;5038221;28;20427;-63
2022/01/23 17:02:10;;;;;;;7.88;5.60;;;;;;;;;;4989442;28;20418;-63
2022/01/23 17:04:36;;;;;;;13.55;7.10;;;;;;;;;;4990510;28;20506;-62
2022/01/23 17:07:02;;;;;;;10.05;6.15;;;;;;;;;;5006199;28;20033;-63
2022/01/23 17:09:33;;;;;;;7.95;4.55;;;;;;;;;;5011363;28;20448;-63
2022/01/23 17:11:59;;;;;;;7.28;3.83;;;;;;;;;;5011142;28;20050;-63
2022/01/23 17:14:26;;;;;;;6.95;4.40;;;;;;;;;;5026093;28;20042;-63
2022/01/23 17:16:52;;;;;;;6.15;4.07;;;;;;;;;;4993571;28;20050;-63
2022/01/23 17:19:18;;;;;;;9.80;4.63;;;;;;;;;;5011119;28;20060;-63
2022/01/23 17:21:47;;;;;;;7.75;4.72;;;;;;;;;;5025757;28;20100;-63
2022/01/23 17:24:13;;;;;;;10.25;4.40;;;;;;;;;;5008873;28;20041;-63
2022/01/23 17:26:39;;;;;;;6.35;4.05;;;;;;;;;;5009913;28;20407;-64
2022/01/23 17:29:05;;;;;;;6.53;3.50;;;;;;;;;;5008994;28;20037;-63
2022/01/23 17:31:32;;;;;;;7.15;3.45;;;;;;;;;;5009514;28;20065;-61
2022/01/23 17:33:58;;;;;;;9.27;3.45;;;;;;;;;;4992447;28;20048;-62
2022/01/23 17:36:24;;;;;;;8.02;3.95;;;;;;;;;;5009454;28;20044;-62
2022/01/23 17:38:50;;;;;;;5.85;3.10;;;;;;;;;;5010018;28;20054;-61
2022/01/23 17:41:16;;;;;;;5.72;3.05;;;;;;;;;;5040688;28;20099;-61
2022/01/23 17:43:43;;;;;;;8.00;3.33;;;;;;;;;;5008681;28;20045;-63
2022/01/23 17:46:11;;;;;;;5.97;3.05;;;;;;;;;;5008087;28;20045;-63
2022/01/23 17:51:24;;;;;;;9.30;4.70;;;;;;;;;;5041752;28;20096;-62
2022/01/23 17:53:51;;;;;;;7.05;3.95;;;;;;;;;;5008350;28;20061;-63
2022/01/23 17:56:17;;;;;;;9.32;5.40;;;;;;;;;;5010607;28;20045;-63
2022/01/23 17:58:43;;;;;;;12.40;7.47;;;;;;;;;;5009696;28;20038;-61
2022/01/23 18:01:10;;;;;;;12.68;7.55;;;;;;;;;;5007866;28;20053;-64
2022/01/23 18:03:38;;;;;;;8.95;4.95;;;;;;;;;;5008709;28;20041;-63
2022/01/23 18:06:09;;;;;;;6.85;3.78;;;;;;;;;;5009323;28;20049;-64